sensor_id;sensor_type;location;lat;lon;timestamp;pressure;altitude;pressure_sealevel;temperature;humidity
56070;BME280;41944;52.078;-0.058;2023-12-14T00:02:15;101313.43;;;6.82;99.11
56070;BME280;41944;52.078;-0.058;2023-12-14T00:04:42;101312.52;;;6.75;99.89
56070;BME280;41944;52.078;-0.058;2023-12-14T00:07:08;101317.64;;;6.74;100.00
56070;BME280;41944;52.078;-0.058;2023-12-14T00:09:35;101319.26;;;6.81;99.30
56070;BME280;41944;52.078;-0.058;2023-12-14T00:12:02;101324.60;;;6.89;100.00
56070;BME280;41944;52.078;-0.058;2023-12-14T00:14:29;101330.28;;;6.94;100.00
56070;BME280;41944;52.078;-0.058;2023-12-14T00:16:56;101339.16;;;6.78;99.83
56070;BME280;41944;52.078;-0.058;2023-12-14T00:19:24;101346.22;;;6.67;100.00
56070;BME280;41944;52.078;-0.058;2023-12-14T00:21:50;101344.64;;;6.75;100.00
56070;BME280;41944;52.078;-0.058;2023-12-14T00:24:17;101350.07;;;6.89;100.00
56070;BME280;41944;52.078;-0.058;2023-12-14T00:26:44;101359.54;;;6.99;100.00
56070;BME280;41944;52.078;-0.058;2023-12-14T00:29:11;101362.36;;;7.21;100.00
56070;BME280;41944;52.078;-0.058;2023-12-14T00:31:38;101363.21;;;7.27;100.00
56070;BME280;41944;52.078;-0.058;2023-12-14T00:34:05;101364.74;;;7.17;100.00
56070;BME280;41944;52.078;-0.058;2023-12-14T00:36:32;101364.46;;;7.42;100.00
56070;BME280;41944;52.078;-0.058;2023-12-14T00:38:59;101364.33;;;7.45;99.32
56070;BME280;41944;52.078;-0.058;2023-12-14T00:41:26;101364.27;;;7.36;98.81
56070;BME280;41944;52.078;-0.058;2023-12-14T00:43:53;101364.72;;;7.43;96.58
56070;BME280;41944;52.078;-0.058;2023-12-14T00:46:20;101368.80;;;7.24;93.88
56070;BME280;41944;52.078;-0.058;2023-12-14T00:48:47;101367.54;;;7.01;96.40
56070;BME280;41944;52.078;-0.058;2023-12-14T00:51:14;101374.59;;;7.10;98.35
56070;BME280;41944;52.078;-0.058;2023-12-14T00:53:41;101376.60;;;7.12;98.60
56070;BME280;41944;52.078;-0.058;2023-12-14T00:56:08;101383.29;;;7.29;98.91
56070;BME280;41944;52.078;-0.058;2023-12-14T00:58:35;101385.14;;;7.27;97.22
56070;BME280;41944;52.078;-0.058;2023-12-14T01:01:02;101382.16;;;7.14;94.94
56070;BME280;41944;52.078;-0.058;2023-12-14T01:03:30;101389.32;;;7.20;97.87
56070;BME280;41944;52.078;-0.058;2023-12-14T01:05:57;101394.20;;;7.11;96.58
56070;BME280;41944;52.078;-0.058;2023-12-14T01:08:24;101391.91;;;7.03;97.27
56070;BME280;41944;52.078;-0.058;2023-12-14T01:10:51;101392.10;;;7.14;97.05
56070;BME280;41944;52.078;-0.058;2023-12-14T01:13:18;101397.65;;;7.20;98.56
56070;BME280;41944;52.078;-0.058;2023-12-14T01:15:44;101401.97;;;7.30;98.89
56070;BME280;41944;52.078;-0.058;2023-12-14T01:18:11;101401.85;;;7.30;99.29
56070;BME280;41944;52.078;-0.058;2023-12-14T01:20:38;101394.56;;;7.30;97.39
56070;BME280;41944;52.078;-0.058;2023-12-14T01:23:05;101401.31;;;7.17;95.32
56070;BME280;41944;52.078;-0.058;2023-12-14T01:25:32;101405.08;;;7.06;97.06
56070;BME280;41944;52.078;-0.058;2023-12-14T01:27:59;101400.29;;;7.18;97.63
56070;BME280;41944;52.078;-0.058;2023-12-14T01:30:26;101405.05;;;7.16;96.10
56070;BME280;41944;52.078;-0.058;2023-12-14T01:32:53;101406.20;;;7.29;97.52
56070;BME280;41944;52.078;-0.058;2023-12-14T01:35:20;101402.21;;;7.18;97.52
56070;BME280;41944;52.078;-0.058;2023-12-14T01:37:46;101406.90;;;7.01;97.46
56070;BME280;41944;52.078;-0.058;2023-12-14T01:40:13;101405.01;;;6.88;98.02
56070;BME280;41944;52.078;-0.058;2023-12-14T01:42:40;101404.83;;;7.14;97.01
56070;BME280;41944;52.078;-0.058;2023-12-14T01:45:08;101402.61;;;6.99;96.94
56070;BME280;41944;52.078;-0.058;2023-12-14T01:47:35;101403.00;;;7.14;96.38
56070;BME280;41944;52.078;-0.058;2023-12-14T01:50:02;101406.93;;;7.00;96.25
56070;BME280;41944;52.078;-0.058;2023-12-14T01:52:29;101414.91;;;6.85;95.88
56070;BME280;41944;52.078;-0.058;2023-12-14T01:54:56;101413.84;;;6.94;97.29
56070;BME280;41944;52.078;-0.058;2023-12-14T01:57:24;101413.75;;;6.94;96.81
56070;BME280;41944;52.078;-0.058;2023-12-14T01:59:51;101410.76;;;6.92;96.63
56070;BME280;41944;52.078;-0.058;2023-12-14T02:02:18;101415.93;;;6.98;97.00
56070;BME280;41944;52.078;-0.058;2023-12-14T02:04:46;101425.54;;;6.76;96.35
56070;BME280;41944;52.078;-0.058;2023-12-14T02:07:12;101433.50;;;6.90;95.53
56070;BME280;41944;52.078;-0.058;2023-12-14T02:09:39;101441.26;;;6.88;96.30
56070;BME280;41944;52.078;-0.058;2023-12-14T02:12:06;101439.74;;;6.93;97.00
56070;BME280;41944;52.078;-0.058;2023-12-14T02:14:33;101440.90;;;6.80;96.29
56070;BME280;41944;52.078;-0.058;2023-12-14T02:17:00;101450.89;;;6.87;96.73
56070;BME280;41944;52.078;-0.058;2023-12-14T02:19:27;101452.50;;;6.64;95.61
56070;BME280;41944;52.078;-0.058;2023-12-14T02:21:54;101461.81;;;6.36;96.40
56070;BME280;41944;52.078;-0.058;2023-12-14T02:24:21;101471.95;;;6.32;97.71
56070;BME280;41944;52.078;-0.058;2023-12-14T02:26:48;101475.14;;;6.36;97.88
56070;BME280;41944;52.078;-0.058;2023-12-14T02:29:14;101473.67;;;6.26;98.35
56070;BME280;41944;52.078;-0.058;2023-12-14T02:31:41;101473.37;;;6.28;98.01
56070;BME280;41944;52.078;-0.058;2023-12-14T02:34:08;101477.85;;;6.35;98.07
56070;BME280;41944;52.078;-0.058;2023-12-14T02:36:35;101478.77;;;6.27;97.43
56070;BME280;41944;52.078;-0.058;2023-12-14T02:39:02;101485.97;;;6.16;97.17
56070;BME280;41944;52.078;-0.058;2023-12-14T02:41:29;101489.11;;;6.01;97.84
56070;BME280;41944;52.078;-0.058;2023-12-14T02:43:56;101493.09;;;5.98;98.13
56070;BME280;41944;52.078;-0.058;2023-12-14T02:46:23;101502.62;;;5.81;98.06
56070;BME280;41944;52.078;-0.058;2023-12-14T02:48:50;101500.04;;;5.89;98.65
56070;BME280;41944;52.078;-0.058;2023-12-14T02:51:17;101501.81;;;5.67;98.40
56070;BME280;41944;52.078;-0.058;2023-12-14T02:53:44;101503.35;;;5.49;99.54
56070;BME280;41944;52.078;-0.058;2023-12-14T02:56:11;101511.20;;;5.35;100.00
56070;BME280;41944;52.078;-0.058;2023-12-14T02:58:38;101509.49;;;5.38;100.00
56070;BME280;41944;52.078;-0.058;2023-12-14T03:01:05;101508.91;;;5.38;100.00
56070;BME280;41944;52.078;-0.058;2023-12-14T03:03:32;101509.00;;;5.35;100.00
56070;BME280;41944;52.078;-0.058;2023-12-14T03:05:58;101504.16;;;4.96;100.00
56070;BME280;41944;52.078;-0.058;2023-12-14T03:08:25;101497.85;;;4.84;100.00
56070;BME280;41944;52.078;-0.058;2023-12-14T03:10:52;101494.80;;;4.79;100.00
56070;BME280;41944;52.078;-0.058;2023-12-14T03:13:19;101499.25;;;4.51;100.00
56070;BME280;41944;52.078;-0.058;2023-12-14T03:15:45;101499.31;;;4.51;100.00
56070;BME280;41944;52.078;-0.058;2023-12-14T03:18:12;101502.49;;;4.64;100.00
56070;BME280;41944;52.078;-0.058;2023-12-14T03:20:39;101504.94;;;4.43;100.00
56070;BME280;41944;52.078;-0.058;2023-12-14T03:23:06;101508.85;;;4.38;100.00
56070;BME280;41944;52.078;-0.058;2023-12-14T03:25:33;101508.49;;;4.32;100.00
56070;BME280;41944;52.078;-0.058;2023-12-14T03:28:00;101509.85;;;4.10;100.00
56070;BME280;41944;52.078;-0.058;2023-12-14T03:30:27;101506.55;;;4.06;100.00
56070;BME280;41944;52.078;-0.058;2023-12-14T03:32:54;101497.94;;;3.97;100.00
56070;BME280;41944;52.078;-0.058;2023-12-14T03:35:21;101499.81;;;3.98;100.00
56070;BME280;41944;52.078;-0.058;2023-12-14T03:37:47;101502.82;;;4.00;100.00
56070;BME280;41944;52.078;-0.058;2023-12-14T03:40:14;101501.12;;;4.00;100.00
56070;BME280;41944;52.078;-0.058;2023-12-14T03:42:41;101506.68;;;3.88;100.00
56070;BME280;41944;52.078;-0.058;2023-12-14T03:45:09;101510.48;;;3.73;100.00
56070;BME280;41944;52.078;-0.058;2023-12-14T03:47:36;101518.57;;;3.72;100.00
56070;BME280;41944;52.078;-0.058;2023-12-14T03:50:04;101522.01;;;3.61;100.00
56070;BME280;41944;52.078;-0.058;2023-12-14T03:52:31;101524.47;;;3.51;100.00
56070;BME280;41944;52.078;-0.058;2023-12-14T03:54:57;101529.92;;;3.46;100.00
56070;BME280;41944;52.078;-0.058;2023-12-14T03:57:24;101534.58;;;3.49;100.00
56070;BME280;41944;52.078;-0.058;2023-12-14T03:59:51;101536.14;;;3.64;100.00
56070;BME280;41944;52.078;-0.058;2023-12-14T04:02:18;101535.05;;;3.84;100.00
56070;BME280;41944;52.078;-0.058;2023-12-14T04:04:45;101535.71;;;3.85;100.00
56070;BME280;41944;52.078;-0.058;2023-12-14T04:07:12;101537.31;;;3.88;100.00
56070;BME280;41944;52.078;-0.058;2023-12-14T04:09:39;101542.72;;;3.76;100.00
56070;BME280;41944;52.078;-0.058;2023-12-14T04:12:06;101544.43;;;3.73;100.00
56070;BME280;41944;52.078;-0.058;2023-12-14T04:14:33;101548.39;;;3.71;100.00
56070;BME280;41944;52.078;-0.058;2023-12-14T04:17:00;101549.24;;;3.66;100.00
56070;BME280;41944;52.078;-0.058;2023-12-14T04:19:27;101549.69;;;3.77;100.00
56070;BME280;41944;52.078;-0.058;2023-12-14T04:21:54;101553.37;;;3.68;100.00
56070;BME280;41944;52.078;-0.058;2023-12-14T04:24:21;101557.71;;;3.64;100.00
56070;BME280;41944;52.078;-0.058;2023-12-14T04:26:48;101558.12;;;3.65;100.00
56070;BME280;41944;52.078;-0.058;2023-12-14T04:29:15;101551.99;;;3.56;100.00
56070;BME280;41944;52.078;-0.058;2023-12-14T04:31:42;101555.29;;;3.69;100.00
56070;BME280;41944;52.078;-0.058;2023-12-14T04:34:09;101560.00;;;3.94;100.00
56070;BME280;41944;52.078;-0.058;2023-12-14T04:36:36;101561.38;;;3.84;100.00
56070;BME280;41944;52.078;-0.058;2023-12-14T04:39:03;101563.89;;;3.81;100.00
56070;BME280;41944;52.078;-0.058;2023-12-14T04:41:30;101566.95;;;3.89;100.00
56070;BME280;41944;52.078;-0.058;2023-12-14T04:43:57;101569.56;;;3.92;100.00
56070;BME280;41944;52.078;-0.058;2023-12-14T04:46:24;101572.25;;;3.94;100.00
56070;BME280;41944;52.078;-0.058;2023-12-14T04:48:52;101569.54;;;3.81;100.00
56070;BME280;41944;52.078;-0.058;2023-12-14T04:51:18;101572.00;;;3.95;100.00
56070;BME280;41944;52.078;-0.058;2023-12-14T04:53:45;101576.60;;;3.96;100.00
56070;BME280;41944;52.078;-0.058;2023-12-14T04:56:12;101578.44;;;3.94;100.00
56070;BME280;41944;52.078;-0.058;2023-12-14T04:58:41;101579.78;;;3.87;100.00
56070;BME280;41944;52.078;-0.058;2023-12-14T05:01:08;101581.53;;;3.88;100.00
56070;BME280;41944;52.078;-0.058;2023-12-14T05:03:35;101585.71;;;4.08;100.00
56070;BME280;41944;52.078;-0.058;2023-12-14T05:06:02;101584.40;;;4.20;100.00
56070;BME280;41944;52.078;-0.058;2023-12-14T05:08:29;101583.07;;;4.13;100.00
56070;BME280;41944;52.078;-0.058;2023-12-14T05:10:56;101580.44;;;3.98;100.00
56070;BME280;41944;52.078;-0.058;2023-12-14T05:13:24;101583.70;;;4.10;100.00
56070;BME280;41944;52.078;-0.058;2023-12-14T05:15:51;101592.88;;;4.26;100.00
56070;BME280;41944;52.078;-0.058;2023-12-14T05:18:18;101602.09;;;4.35;100.00
56070;BME280;41944;52.078;-0.058;2023-12-14T05:20:45;101604.49;;;4.35;100.00
56070;BME280;41944;52.078;-0.058;2023-12-14T05:23:12;101605.65;;;4.23;100.00
56070;BME280;41944;52.078;-0.058;2023-12-14T05:25:39;101602.87;;;4.25;100.00
56070;BME280;41944;52.078;-0.058;2023-12-14T05:28:06;101597.43;;;4.17;100.00
56070;BME280;41944;52.078;-0.058;2023-12-14T05:30:33;101592.66;;;4.13;100.00
56070;BME280;41944;52.078;-0.058;2023-12-14T05:33:00;101587.90;;;4.25;100.00
56070;BME280;41944;52.078;-0.058;2023-12-14T05:35:26;101584.51;;;4.50;100.00
56070;BME280;41944;52.078;-0.058;2023-12-14T05:37:53;101580.92;;;4.48;100.00
56070;BME280;41944;52.078;-0.058;2023-12-14T05:40:20;101577.86;;;4.61;100.00
56070;BME280;41944;52.078;-0.058;2023-12-14T05:42:48;101585.01;;;4.53;100.00
56070;BME280;41944;52.078;-0.058;2023-12-14T05:45:14;101588.92;;;4.42;100.00
56070;BME280;41944;52.078;-0.058;2023-12-14T05:47:41;101590.73;;;4.40;100.00
56070;BME280;41944;52.078;-0.058;2023-12-14T05:50:08;101591.20;;;4.61;100.00
56070;BME280;41944;52.078;-0.058;2023-12-14T05:52:36;101588.89;;;4.72;100.00
56070;BME280;41944;52.078;-0.058;2023-12-14T05:55:03;101596.00;;;4.64;100.00
56070;BME280;41944;52.078;-0.058;2023-12-14T05:57:31;101603.18;;;4.61;100.00
56070;BME280;41944;52.078;-0.058;2023-12-14T05:59:57;101607.47;;;4.54;100.00
56070;BME280;41944;52.078;-0.058;2023-12-14T06:02:24;101611.00;;;4.64;100.00
56070;BME280;41944;52.078;-0.058;2023-12-14T06:04:51;101607.60;;;4.73;100.00
56070;BME280;41944;52.078;-0.058;2023-12-14T06:07:18;101613.95;;;5.04;100.00
56070;BME280;41944;52.078;-0.058;2023-12-14T06:09:45;101618.20;;;4.92;100.00
56070;BME280;41944;52.078;-0.058;2023-12-14T06:12:12;101625.18;;;4.63;100.00
56070;BME280;41944;52.078;-0.058;2023-12-14T06:14:39;101631.77;;;4.72;100.00
56070;BME280;41944;52.078;-0.058;2023-12-14T06:17:06;101636.97;;;4.67;100.00
56070;BME280;41944;52.078;-0.058;2023-12-14T06:19:33;101638.19;;;4.83;100.00
56070;BME280;41944;52.078;-0.058;2023-12-14T06:22:00;101634.57;;;4.94;100.00
56070;BME280;41944;52.078;-0.058;2023-12-14T06:24:27;101642.45;;;4.86;100.00
56070;BME280;41944;52.078;-0.058;2023-12-14T06:26:54;101643.33;;;4.77;100.00
56070;BME280;41944;52.078;-0.058;2023-12-14T06:29:21;101636.07;;;5.00;100.00
56070;BME280;41944;52.078;-0.058;2023-12-14T06:31:49;101637.67;;;5.00;100.00
56070;BME280;41944;52.078;-0.058;2023-12-14T06:34:16;101637.04;;;5.20;98.68
56070;BME280;41944;52.078;-0.058;2023-12-14T06:36:44;101636.89;;;5.13;98.33
56070;BME280;41944;52.078;-0.058;2023-12-14T06:39:12;101647.36;;;4.81;100.00
56070;BME280;41944;52.078;-0.058;2023-12-14T06:41:39;101643.74;;;4.98;99.74
56070;BME280;41944;52.078;-0.058;2023-12-14T06:44:06;101644.15;;;5.04;98.77
56070;BME280;41944;52.078;-0.058;2023-12-14T06:46:33;101645.51;;;4.95;99.35
56070;BME280;41944;52.078;-0.058;2023-12-14T06:49:00;101645.39;;;4.97;99.26
56070;BME280;41944;52.078;-0.058;2023-12-14T06:51:27;101646.81;;;5.11;98.83
56070;BME280;41944;52.078;-0.058;2023-12-14T06:53:54;101649.90;;;5.15;99.23
56070;BME280;41944;52.078;-0.058;2023-12-14T06:56:21;101651.43;;;5.15;99.40
56070;BME280;41944;52.078;-0.058;2023-12-14T06:58:48;101648.89;;;5.13;99.26
56070;BME280;41944;52.078;-0.058;2023-12-14T07:01:15;101650.83;;;5.06;99.34
56070;BME280;41944;52.078;-0.058;2023-12-14T07:03:42;101648.97;;;5.22;99.06
56070;BME280;41944;52.078;-0.058;2023-12-14T07:06:12;101653.11;;;5.22;99.47
56070;BME280;41944;52.078;-0.058;2023-12-14T07:08:39;101654.89;;;5.07;99.78
56070;BME280;41944;52.078;-0.058;2023-12-14T07:11:06;101655.16;;;5.21;99.57
56070;BME280;41944;52.078;-0.058;2023-12-14T07:13:34;101655.36;;;5.20;99.57
56070;BME280;41944;52.078;-0.058;2023-12-14T07:16:02;101663.52;;;5.29;99.85
56070;BME280;41944;52.078;-0.058;2023-12-14T07:18:29;101664.50;;;5.39;98.97
56070;BME280;41944;52.078;-0.058;2023-12-14T07:20:56;101671.63;;;5.26;99.89
56070;BME280;41944;52.078;-0.058;2023-12-14T07:23:24;101679.61;;;5.36;99.44
56070;BME280;41944;52.078;-0.058;2023-12-14T07:25:51;101681.06;;;5.31;99.04
56070;BME280;41944;52.078;-0.058;2023-12-14T07:28:18;101687.72;;;5.38;98.46
56070;BME280;41944;52.078;-0.058;2023-12-14T07:30:45;101692.23;;;5.57;97.71
56070;BME280;41944;52.078;-0.058;2023-12-14T07:33:12;101695.70;;;5.56;97.06
56070;BME280;41944;52.078;-0.058;2023-12-14T07:35:39;101698.75;;;5.39;98.44
56070;BME280;41944;52.078;-0.058;2023-12-14T07:38:06;101701.06;;;5.28;99.40
56070;BME280;41944;52.078;-0.058;2023-12-14T07:40:33;101696.79;;;5.32;99.40
56070;BME280;41944;52.078;-0.058;2023-12-14T07:42:59;101698.82;;;5.16;100.00
56070;BME280;41944;52.078;-0.058;2023-12-14T07:45:27;101705.00;;;5.26;100.00
56070;BME280;41944;52.078;-0.058;2023-12-14T07:47:54;101703.59;;;5.39;99.79
56070;BME280;41944;52.078;-0.058;2023-12-14T07:50:21;101712.47;;;5.17;100.00
56070;BME280;41944;52.078;-0.058;2023-12-14T07:52:48;101711.13;;;5.27;100.00
56070;BME280;41944;52.078;-0.058;2023-12-14T07:55:14;101708.78;;;5.41;100.00
56070;BME280;41944;52.078;-0.058;2023-12-14T07:57:41;101713.95;;;5.40;100.00
56070;BME280;41944;52.078;-0.058;2023-12-14T08:00:09;101714.85;;;5.46;99.50
56070;BME280;41944;52.078;-0.058;2023-12-14T08:02:37;101709.57;;;5.59;99.25
56070;BME280;41944;52.078;-0.058;2023-12-14T08:05:05;101712.55;;;5.53;99.34
56070;BME280;41944;52.078;-0.058;2023-12-14T08:07:32;101714.67;;;5.56;99.38
56070;BME280;41944;52.078;-0.058;2023-12-14T08:09:59;101722.95;;;5.63;98.84
56070;BME280;41944;52.078;-0.058;2023-12-14T08:12:27;101726.01;;;5.67;98.99
56070;BME280;41944;52.078;-0.058;2023-12-14T08:14:54;101734.31;;;5.51;99.48
56070;BME280;41944;52.078;-0.058;2023-12-14T08:17:21;101730.40;;;5.81;98.51
56070;BME280;41944;52.078;-0.058;2023-12-14T08:19:48;101731.49;;;5.94;97.38
56070;BME280;41944;52.078;-0.058;2023-12-14T08:22:15;101720.41;;;5.88;97.27
56070;BME280;41944;52.078;-0.058;2023-12-14T08:24:42;101715.78;;;5.91;97.29
56070;BME280;41944;52.078;-0.058;2023-12-14T08:27:08;101714.12;;;5.98;97.10
56070;BME280;41944;52.078;-0.058;2023-12-14T08:29:35;101713.93;;;5.84;97.65
56070;BME280;41944;52.078;-0.058;2023-12-14T08:32:02;101704.62;;;5.77;98.58
56070;BME280;41944;52.078;-0.058;2023-12-14T08:34:30;101704.04;;;5.92;97.82
56070;BME280;41944;52.078;-0.058;2023-12-14T08:36:57;101695.86;;;6.00;98.57
56070;BME280;41944;52.078;-0.058;2023-12-14T08:39:24;101692.35;;;6.04;98.20
56070;BME280;41944;52.078;-0.058;2023-12-14T08:41:51;101703.22;;;5.95;98.54
56070;BME280;41944;52.078;-0.058;2023-12-14T08:44:18;101707.90;;;6.12;98.68
56070;BME280;41944;52.078;-0.058;2023-12-14T08:46:46;101709.85;;;6.09;97.91
56070;BME280;41944;52.078;-0.058;2023-12-14T08:49:14;101711.57;;;6.01;97.94
56070;BME280;41944;52.078;-0.058;2023-12-14T08:51:41;101706.72;;;6.16;97.35
56070;BME280;41944;52.078;-0.058;2023-12-14T08:54:08;101704.59;;;6.07;97.53
56070;BME280;41944;52.078;-0.058;2023-12-14T08:56:35;101707.20;;;6.08;98.46
56070;BME280;41944;52.078;-0.058;2023-12-14T08:59:02;101713.51;;;6.16;98.05
56070;BME280;41944;52.078;-0.058;2023-12-14T09:01:29;101718.54;;;6.29;96.87
56070;BME280;41944;52.078;-0.058;2023-12-14T09:03:56;101723.35;;;6.38;96.26
56070;BME280;41944;52.078;-0.058;2023-12-14T09:06:23;101728.35;;;6.27;96.08
56070;BME280;41944;52.078;-0.058;2023-12-14T09:08:50;101728.51;;;6.13;97.13
56070;BME280;41944;52.078;-0.058;2023-12-14T09:11:17;101730.56;;;6.40;96.88
56070;BME280;41944;52.078;-0.058;2023-12-14T09:13:44;101730.93;;;6.33;96.86
56070;BME280;41944;52.078;-0.058;2023-12-14T09:16:11;101737.39;;;6.23;97.81
56070;BME280;41944;52.078;-0.058;2023-12-14T09:18:38;101738.28;;;6.41;96.49
56070;BME280;41944;52.078;-0.058;2023-12-14T09:21:05;101742.98;;;6.46;96.37
56070;BME280;41944;52.078;-0.058;2023-12-14T09:23:32;101740.72;;;6.69;95.23
56070;BME280;41944;52.078;-0.058;2023-12-14T09:25:59;101739.80;;;6.67;95.08
56070;BME280;41944;52.078;-0.058;2023-12-14T09:28:26;101737.99;;;6.70;95.18
56070;BME280;41944;52.078;-0.058;2023-12-14T09:30:52;101734.25;;;6.76;95.38
56070;BME280;41944;52.078;-0.058;2023-12-14T09:33:20;101733.14;;;6.92;93.55
56070;BME280;41944;52.078;-0.058;2023-12-14T09:35:47;101730.25;;;6.77;93.37
56070;BME280;41944;52.078;-0.058;2023-12-14T09:38:14;101733.33;;;6.87;93.26
56070;BME280;41944;52.078;-0.058;2023-12-14T09:40:42;101733.04;;;6.85;92.72
56070;BME280;41944;52.078;-0.058;2023-12-14T09:43:09;101734.28;;;6.91;92.19
56070;BME280;41944;52.078;-0.058;2023-12-14T09:45:38;101735.63;;;7.03;91.14
56070;BME280;41944;52.078;-0.058;2023-12-14T09:48:07;101737.20;;;7.06;91.44
56070;BME280;41944;52.078;-0.058;2023-12-14T09:50:35;101734.89;;;7.07;90.99
56070;BME280;41944;52.078;-0.058;2023-12-14T09:53:03;101731.12;;;7.02;91.21
56070;BME280;41944;52.078;-0.058;2023-12-14T09:55:30;101736.18;;;7.17;90.88
56070;BME280;41944;52.078;-0.058;2023-12-14T09:57:57;101739.42;;;7.21;89.81
56070;BME280;41944;52.078;-0.058;2023-12-14T10:00:40;101743.90;;;7.27;90.30
56070;BME280;41944;52.078;-0.058;2023-12-14T10:03:25;101745.35;;;7.37;89.19
56070;BME280;41944;52.078;-0.058;2023-12-14T10:05:52;101743.46;;;7.40;89.11
56070;BME280;41944;52.078;-0.058;2023-12-14T10:08:20;101747.58;;;7.49;87.83
56070;BME280;41944;52.078;-0.058;2023-12-14T10:10:49;101747.53;;;7.35;87.70
56070;BME280;41944;52.078;-0.058;2023-12-14T10:13:16;101755.54;;;7.41;87.76
56070;BME280;41944;52.078;-0.058;2023-12-14T10:15:44;101756.60;;;7.42;87.87
56070;BME280;41944;52.078;-0.058;2023-12-14T10:18:11;101755.05;;;7.56;87.95
56070;BME280;41944;52.078;-0.058;2023-12-14T10:20:38;101754.75;;;7.53;88.02
56070;BME280;41944;52.078;-0.058;2023-12-14T10:23:06;101756.22;;;7.61;88.54
56070;BME280;41944;52.078;-0.058;2023-12-14T10:25:35;101762.05;;;7.56;89.20
56070;BME280;41944;52.078;-0.058;2023-12-14T10:28:03;101760.42;;;7.68;90.00
56070;BME280;41944;52.078;-0.058;2023-12-14T10:30:29;101752.38;;;7.71;89.26
56070;BME280;41944;52.078;-0.058;2023-12-14T10:32:56;101757.05;;;7.62;89.29
56070;BME280;41944;52.078;-0.058;2023-12-14T10:35:24;101753.82;;;7.79;89.53
56070;BME280;41944;52.078;-0.058;2023-12-14T10:37:51;101752.72;;;7.80;88.85
56070;BME280;41944;52.078;-0.058;2023-12-14T10:40:19;101752.98;;;7.78;88.55
56070;BME280;41944;52.078;-0.058;2023-12-14T10:42:47;101755.07;;;7.81;89.48
56070;BME280;41944;52.078;-0.058;2023-12-14T10:45:16;101751.56;;;7.84;90.19
56070;BME280;41944;52.078;-0.058;2023-12-14T10:47:45;101752.37;;;7.94;90.26
56070;BME280;41944;52.078;-0.058;2023-12-14T10:50:12;101751.02;;;7.89;90.42
56070;BME280;41944;52.078;-0.058;2023-12-14T10:52:39;101745.24;;;7.94;90.28
56070;BME280;41944;52.078;-0.058;2023-12-14T10:55:10;101746.42;;;7.99;90.86
56070;BME280;41944;52.078;-0.058;2023-12-14T10:57:38;101740.85;;;8.07;90.96
56070;BME280;41944;52.078;-0.058;2023-12-14T11:00:07;101738.86;;;7.95;91.71
56070;BME280;41944;52.078;-0.058;2023-12-14T11:02:40;101735.04;;;7.91;92.69
56070;BME280;41944;52.078;-0.058;2023-12-14T11:05:07;101732.72;;;7.90;92.94
56070;BME280;41944;52.078;-0.058;2023-12-14T11:07:52;101739.66;;;8.00;93.23
56070;BME280;41944;52.078;-0.058;2023-12-14T11:10:22;101739.45;;;8.17;93.11
56070;BME280;41944;52.078;-0.058;2023-12-14T11:12:56;101742.26;;;8.31;92.50
56070;BME280;41944;52.078;-0.058;2023-12-14T11:15:24;101741.51;;;8.33;93.09
56070;BME280;41944;52.078;-0.058;2023-12-14T11:20:24;101742.40;;;8.24;94.28
56070;BME280;41944;52.078;-0.058;2023-12-14T11:22:55;101741.75;;;8.45;93.81
56070;BME280;41944;52.078;-0.058;2023-12-14T11:25:24;101745.97;;;8.44;94.18
56070;BME280;41944;52.078;-0.058;2023-12-14T11:27:51;101746.52;;;8.46;94.04
56070;BME280;41944;52.078;-0.058;2023-12-14T11:30:18;101751.09;;;8.56;93.87
56070;BME280;41944;52.078;-0.058;2023-12-14T11:32:46;101744.63;;;8.43;94.09
56070;BME280;41944;52.078;-0.058;2023-12-14T11:35:13;101746.39;;;8.49;94.57
56070;BME280;41944;52.078;-0.058;2023-12-14T11:37:40;101747.34;;;8.55;93.97
56070;BME280;41944;52.078;-0.058;2023-12-14T11:40:08;101752.37;;;8.60;93.97
56070;BME280;41944;52.078;-0.058;2023-12-14T11:42:35;101751.21;;;8.56;94.48
56070;BME280;41944;52.078;-0.058;2023-12-14T11:45:01;101748.68;;;8.52;94.58
56070;BME280;41944;52.078;-0.058;2023-12-14T11:47:29;101747.84;;;8.57;94.95
56070;BME280;41944;52.078;-0.058;2023-12-14T11:49:56;101749.81;;;8.48;95.94
56070;BME280;41944;52.078;-0.058;2023-12-14T11:52:23;101751.07;;;8.47;96.53
56070;BME280;41944;52.078;-0.058;2023-12-14T11:54:51;101751.35;;;8.52;96.91
56070;BME280;41944;52.078;-0.058;2023-12-14T11:57:19;101748.59;;;8.60;96.27
56070;BME280;41944;52.078;-0.058;2023-12-14T11:59:46;101748.75;;;8.57;96.34
56070;BME280;41944;52.078;-0.058;2023-12-14T12:02:23;101745.33;;;8.68;96.43
56070;BME280;41944;52.078;-0.058;2023-12-14T12:04:51;101747.65;;;8.60;97.20
56070;BME280;41944;52.078;-0.058;2023-12-14T12:07:17;101744.89;;;8.78;96.52
56070;BME280;41944;52.078;-0.058;2023-12-14T12:09:44;101745.21;;;8.78;97.09
56070;BME280;41944;52.078;-0.058;2023-12-14T12:12:12;101743.36;;;8.72;98.00
56070;BME280;41944;52.078;-0.058;2023-12-14T12:14:40;101738.70;;;8.78;97.97
56070;BME280;41944;52.078;-0.058;2023-12-14T12:17:07;101741.04;;;8.86;98.44
56070;BME280;41944;52.078;-0.058;2023-12-14T12:19:35;101743.48;;;8.95;98.26
56070;BME280;41944;52.078;-0.058;2023-12-14T12:22:04;101741.58;;;8.83;99.34
56070;BME280;41944;52.078;-0.058;2023-12-14T12:24:30;101737.69;;;8.89;99.92
56070;BME280;41944;52.078;-0.058;2023-12-14T12:26:57;101734.40;;;8.98;99.74
56070;BME280;41944;52.078;-0.058;2023-12-14T12:29:24;101738.11;;;8.93;100.00
56070;BME280;41944;52.078;-0.058;2023-12-14T12:31:51;101736.84;;;8.86;100.00
56070;BME280;41944;52.078;-0.058;2023-12-14T12:34:18;101737.16;;;8.95;100.00
56070;BME280;41944;52.078;-0.058;2023-12-14T12:36:45;101733.33;;;9.12;100.00
56070;BME280;41944;52.078;-0.058;2023-12-14T12:39:12;101732.19;;;9.12;100.00
56070;BME280;41944;52.078;-0.058;2023-12-14T12:41:38;101732.85;;;9.25;100.00
56070;BME280;41944;52.078;-0.058;2023-12-14T12:44:06;101732.98;;;9.27;100.00
56070;BME280;41944;52.078;-0.058;2023-12-14T12:46:33;101735.14;;;9.38;100.00
56070;BME280;41944;52.078;-0.058;2023-12-14T12:49:01;101738.69;;;9.27;100.00